Time;durP1;ratioP1;P1;durP2;ratioP2;P2;SDS_P1;SDS_P2;PMS_P1;PMS_P2;Temp;Humidity;BMP_temperature;BMP_pressure;BME280_temperature;BME280_humidity;BME280_pressure;Samples;Min_cycle;Max_cycle;Signal;HPM_P1;HPM_P2
2022/05/25 00:01:27;;;;;;;7.80;3.80;;;;;;;;;;5002436;28;20401;-80
2022/05/25 00:04:13;;;;;;;7.20;3.40;;;;;;;;;;4995689;28;20050;-81
2022/05/25 00:06:58;;;;;;;5.05;3.50;;;;;;;;;;5001734;28;20405;-79
2022/05/25 00:09:43;;;;;;;7.57;3.20;;;;;;;;;;4995565;28;20473;-80
2022/05/25 00:12:29;;;;;;;6.70;3.40;;;;;;;;;;4994932;28;20049;-80
2022/05/25 00:15:15;;;;;;;8.02;3.53;;;;;;;;;;5002474;28;20054;-78
2022/05/25 00:18:02;;;;;;;11.43;3.13;;;;;;;;;;4995324;28;20050;-81
2022/05/25 00:20:47;;;;;;;7.22;3.40;;;;;;;;;;5000792;28;20046;-79
2022/05/25 00:23:33;;;;;;;6.03;3.53;;;;;;;;;;4995563;28;20038;-80
2022/05/25 00:26:19;;;;;;;8.13;3.50;;;;;;;;;;5001294;28;20046;-81
2022/05/25 00:29:04;;;;;;;6.60;3.80;;;;;;;;;;4995476;28;20057;-80
2022/05/25 00:31:50;;;;;;;14.43;4.25;;;;;;;;;;4994916;28;20425;-79
2022/05/25 00:34:35;;;;;;;16.77;6.35;;;;;;;;;;4995431;28;20058;-80
2022/05/25 00:37:21;;;;;;;8.40;5.68;;;;;;;;;;5001773;28;20042;-80
2022/05/25 00:40:10;;;;;;;9.52;5.00;;;;;;;;;;5009953;28;20389;-81
2022/05/25 00:42:55;;;;;;;8.73;5.10;;;;;;;;;;5034456;28;20042;-81
2022/05/25 00:45:46;;;;;;;9.15;5.18;;;;;;;;;;5034256;28;20053;-80
2022/05/25 00:48:43;;;;;;;6.72;4.63;;;;;;;;;;5041319;28;20069;-80
2022/05/25 00:51:42;;;;;;;13.77;5.78;;;;;;;;;;5019404;28;20041;-82
2022/05/25 00:54:29;;;;;;;10.85;5.30;;;;;;;;;;5035574;28;20042;-80
2022/05/25 00:57:20;;;;;;;14.35;5.63;;;;;;;;;;5036567;28;20057;-80
2022/05/25 01:00:13;;;;;;;8.85;5.10;;;;;;;;;;5040559;28;20045;-80
2022/05/25 01:03:04;;;;;;;9.77;5.30;;;;;;;;;;5034025;28;20041;-81
2022/05/25 01:06:08;;;;;;;9.80;4.93;;;;;;;;;;5040641;28;20045;-79
2022/05/25 01:09:17;;;;;;;10.60;5.53;;;;;;;;;;5040328;28;20480;-80
2022/05/25 01:12:19;;;;;;;13.48;5.43;;;;;;;;;;5033898;28;20162;-80
2022/05/25 01:15:35;;;;;;;9.93;5.80;;;;;;;;;;5040079;28;20049;-78
2022/05/25 01:18:55;;;;;;;8.38;5.28;;;;;;;;;;5013946;28;20041;-81
2022/05/25 01:22:11;;;;;;;9.65;5.55;;;;;;;;;;5013930;28;20041;-80
2022/05/25 01:25:23;;;;;;;10.00;5.65;;;;;;;;;;5039992;28;20053;-78
2022/05/25 01:28:32;;;;;;;8.45;5.18;;;;;;;;;;5039695;28;20045;-81
2022/05/25 01:31:24;;;;;;;9.15;5.90;;;;;;;;;;5005500;28;20050;-79
2022/05/25 01:34:41;;;;;;;14.05;5.50;;;;;;;;;;5036289;28;20057;-81
2022/05/25 01:37:46;;;;;;;7.25;4.93;;;;;;;;;;5037825;28;20488;-79
2022/05/25 01:41:09;;;;;;;11.65;4.90;;;;;;;;;;5037838;28;20455;-81
2022/05/25 01:43:58;;;;;;;8.43;5.40;;;;;;;;;;5043792;28;20046;-80
2022/05/25 01:46:51;;;;;;;8.15;5.43;;;;;;;;;;5044469;28;20050;-80
2022/05/25 01:49:49;;;;;;;7.38;5.05;;;;;;;;;;5043900;28;20053;-81
2022/05/25 01:52:40;;;;;;;8.13;5.13;;;;;;;;;;5037472;28;20050;-81
2022/05/25 01:55:29;;;;;;;7.35;5.22;;;;;;;;;;5037719;28;20058;-80
2022/05/25 01:58:17;;;;;;;11.00;5.32;;;;;;;;;;5043611;28;20041;-79
2022/05/25 02:01:01;;;;;;;8.30;5.35;;;;;;;;;;5044076;28;20045;-80
2022/05/25 02:06:50;;;;;;;9.35;4.82;;;;;;;;;;5043846;28;20492;-78
2022/05/25 02:10:00;;;;;;;9.82;5.53;;;;;;;;;;5043882;28;20396;-79
2022/05/25 02:13:13;;;;;;;10.88;5.32;;;;;;;;;;5037405;28;20041;-81
2022/05/25 02:16:15;;;;;;;11.85;5.75;;;;;;;;;;5043776;28;20049;-79
2022/05/25 02:19:12;;;;;;;13.98;5.30;;;;;;;;;;5043307;28;20049;-79
2022/05/25 02:22:03;;;;;;;11.25;5.70;;;;;;;;;;5037213;28;20389;-81
2022/05/25 02:24:54;;;;;;;10.95;6.03;;;;;;;;;;5036527;28;20037;-78
2022/05/25 02:27:46;;;;;;;9.30;5.07;;;;;;;;;;5037103;28;20046;-82
2022/05/25 02:30:35;;;;;;;9.32;5.30;;;;;;;;;;5036679;28;20041;-79
2022/05/25 02:33:27;;;;;;;8.15;5.22;;;;;;;;;;5043359;28;20049;-78
2022/05/25 02:36:13;;;;;;;9.57;5.03;;;;;;;;;;5043381;28;20053;-78
2022/05/25 02:39:11;;;;;;;8.00;4.57;;;;;;;;;;5036625;28;20042;-79
2022/05/25 02:41:57;;;;;;;12.85;5.50;;;;;;;;;;5043673;28;20042;-81
2022/05/25 02:44:43;;;;;;;9.73;5.40;;;;;;;;;;5036495;28;20046;-80
2022/05/25 02:47:29;;;;;;;9.68;5.50;;;;;;;;;;5042904;28;20045;-81
2022/05/25 02:50:14;;;;;;;10.43;5.25;;;;;;;;;;5036525;28;20045;-80
2022/05/25 02:53:00;;;;;;;9.23;5.72;;;;;;;;;;5036159;28;20045;-79
2022/05/25 02:55:46;;;;;;;11.20;5.50;;;;;;;;;;5042872;28;20041;-79
2022/05/25 02:58:31;;;;;;;9.23;5.13;;;;;;;;;;5036465;28;20045;-81
2022/05/25 03:01:17;;;;;;;11.73;5.38;;;;;;;;;;5021092;28;20053;-81
2022/05/25 03:04:03;;;;;;;11.27;5.53;;;;;;;;;;5036405;28;20045;-80
2022/05/25 03:06:49;;;;;;;9.00;5.07;;;;;;;;;;5035838;28;20396;-83
2022/05/25 03:09:36;;;;;;;10.93;5.53;;;;;;;;;;5043279;28;20050;-82
2022/05/25 03:12:21;;;;;;;10.30;5.03;;;;;;;;;;5042663;28;20053;-78
2022/05/25 03:15:06;;;;;;;12.40;5.90;;;;;;;;;;5035705;28;20033;-81
2022/05/25 03:17:51;;;;;;;18.25;6.00;;;;;;;;;;5036021;28;20037;-81
2022/05/25 03:20:37;;;;;;;9.05;4.75;;;;;;;;;;5035685;28;20053;-81
2022/05/25 03:23:23;;;;;;;8.52;5.22;;;;;;;;;;5034024;28;20061;-81
2022/05/25 03:26:09;;;;;;;12.02;5.53;;;;;;;;;;5031324;28;20049;-80
2022/05/25 03:28:54;;;;;;;8.05;4.78;;;;;;;;;;5032432;28;20049;-77
2022/05/25 03:31:40;;;;;;;10.90;5.13;;;;;;;;;;5033259;28;20049;-81
2022/05/25 03:34:26;;;;;;;11.52;4.85;;;;;;;;;;5035120;28;20049;-81
2022/05/25 03:37:11;;;;;;;11.27;5.65;;;;;;;;;;5036812;28;20049;-81
2022/05/25 03:39:57;;;;;;;7.88;4.95;;;;;;;;;;5025821;28;20050;-79
2022/05/25 03:42:44;;;;;;;9.38;4.93;;;;;;;;;;5041685;28;20053;-81
2022/05/25 03:45:30;;;;;;;8.98;5.47;;;;;;;;;;5042273;28;20045;-82
2022/05/25 03:48:15;;;;;;;6.60;4.72;;;;;;;;;;5035544;28;20046;-80
2022/05/25 03:51:01;;;;;;;7.72;5.50;;;;;;;;;;5035300;28;20049;-79
2022/05/25 03:53:49;;;;;;;11.00;5.00;;;;;;;;;;5033796;28;20484;-81
2022/05/25 03:56:34;;;;;;;9.25;5.15;;;;;;;;;;5037809;28;20054;-80
2022/05/25 03:59:19;;;;;;;7.07;4.97;;;;;;;;;;5026870;28;20045;-81
2022/05/25 04:02:04;;;;;;;10.80;5.35;;;;;;;;;;5041327;28;20049;-80
2022/05/25 04:05:07;;;;;;;12.18;5.57;;;;;;;;;;5041533;28;20049;-81
2022/05/25 04:07:55;;;;;;;11.40;5.18;;;;;;;;;;5041900;28;20053;-78
2022/05/25 04:10:40;;;;;;;10.55;5.25;;;;;;;;;;5041142;28;20045;-78
2022/05/25 04:13:25;;;;;;;9.75;4.90;;;;;;;;;;5019329;28;20037;-81
2022/05/25 04:16:10;;;;;;;11.35;5.25;;;;;;;;;;5014748;28;20046;-80
2022/05/25 04:18:56;;;;;;;8.27;5.50;;;;;;;;;;5021374;28;20053;-81
2022/05/25 04:21:42;;;;;;;11.55;6.18;;;;;;;;;;5021475;28;20046;-79
2022/05/25 04:24:27;;;;;;;14.43;5.78;;;;;;;;;;5021161;28;20041;-80
2022/05/25 04:27:12;;;;;;;9.85;5.25;;;;;;;;;;5021076;28;20046;-81
2022/05/25 04:29:58;;;;;;;12.27;5.40;;;;;;;;;;5014526;28;20042;-79
2022/05/25 04:32:44;;;;;;;9.55;4.82;;;;;;;;;;5027921;28;20045;-81
2022/05/25 04:35:30;;;;;;;14.77;5.60;;;;;;;;;;5021342;28;20041;-80
2022/05/25 04:38:15;;;;;;;10.60;6.53;;;;;;;;;;5016311;28;20050;-78
2022/05/25 04:41:01;;;;;;;13.95;8.43;;;;;;;;;;5036704;28;20049;-82
2022/05/25 04:43:46;;;;;;;16.50;6.00;;;;;;;;;;5040539;28;20489;-78
2022/05/25 04:46:31;;;;;;;10.02;6.30;;;;;;;;;;5033008;28;20045;-78
2022/05/25 04:49:16;;;;;;;12.35;6.00;;;;;;;;;;5040708;28;20053;-80
2022/05/25 04:52:03;;;;;;;16.75;6.63;;;;;;;;;;5034397;28;20473;-79
2022/05/25 04:54:49;;;;;;;10.68;6.05;;;;;;;;;;5027860;28;20041;-80
2022/05/25 04:57:35;;;;;;;9.48;5.95;;;;;;;;;;5041853;28;20045;-80
2022/05/25 05:00:19;;;;;;;13.90;6.32;;;;;;;;;;5037923;28;20045;-79
2022/05/25 05:03:04;;;;;;;8.00;6.45;;;;;;;;;;5043270;28;20508;-79
2022/05/25 05:05:51;;;;;;;13.02;7.20;;;;;;;;;;5044841;28;20041;-78
2022/05/25 05:08:37;;;;;;;10.85;6.03;;;;;;;;;;5045005;28;20053;-79
2022/05/25 05:11:23;;;;;;;14.27;6.90;;;;;;;;;;5039574;28;20053;-81
2022/05/25 05:14:09;;;;;;;20.95;7.50;;;;;;;;;;5043690;28;20049;-77
2022/05/25 05:16:57;;;;;;;19.85;7.35;;;;;;;;;;5045653;28;20468;-79
2022/05/25 05:19:51;;;;;;;20.27;7.22;;;;;;;;;;5029873;28;20050;-80
2022/05/25 05:22:37;;;;;;;13.32;6.45;;;;;;;;;;5026416;28;20408;-78
2022/05/25 05:25:23;;;;;;;18.00;7.18;;;;;;;;;;5025849;28;20049;-79
2022/05/25 05:28:15;;;;;;;11.60;7.20;;;;;;;;;;5039961;28;20054;-79
2022/05/25 05:31:02;;;;;;;22.95;7.47;;;;;;;;;;5033901;28;20488;-80
2022/05/25 05:33:47;;;;;;;15.05;6.93;;;;;;;;;;5033397;28;20050;-79
2022/05/25 05:36:41;;;;;;;16.50;7.13;;;;;;;;;;5033512;28;20400;-80
2022/05/25 05:39:28;;;;;;;;;;;;;;;;;;5040598;28;20053;-81
2022/05/25 05:42:17;;;;;;;18.27;6.03;;;;;;;;;;5039422;28;19917;-81
2022/05/25 05:45:12;;;;;;;17.52;6.63;;;;;;;;;;5033627;28;20045;-81
2022/05/25 05:48:04;;;;;;;19.27;5.95;;;;;;;;;;5033341;28;20060;-79
2022/05/25 05:50:51;;;;;;;14.63;6.00;;;;;;;;;;5033150;28;20037;-79
2022/05/25 05:53:37;;;;;;;12.05;5.22;;;;;;;;;;5033323;28;20049;-80
2022/05/25 05:56:23;;;;;;;10.30;4.97;;;;;;;;;;5040255;28;20053;-80
2022/05/25 05:59:09;;;;;;;11.15;4.75;;;;;;;;;;5033564;28;20053;-81
2022/05/25 06:01:54;;;;;;;7.90;4.80;;;;;;;;;;5033392;28;20046;-82
2022/05/25 06:04:39;;;;;;;11.30;4.75;;;;;;;;;;5040331;28;20037;-80
2022/05/25 06:07:24;;;;;;;14.65;4.70;;;;;;;;;;5033637;28;20496;-80
2022/05/25 06:10:10;;;;;;;7.15;4.32;;;;;;;;;;5040230;28;20049;-81
2022/05/25 06:12:56;;;;;;;10.90;4.57;;;;;;;;;;5036156;28;20049;-79
2022/05/25 06:22:00;;;;;;;10.35;5.07;;;;;;;;;;5043187;28;20045;-80
2022/05/25 06:24:52;;;;;;;9.38;4.55;;;;;;;;;;5036885;28;20492;-79
2022/05/25 06:27:38;;;;;;;8.93;4.68;;;;;;;;;;5036706;28;20045;-80
2022/05/25 06:30:24;;;;;;;7.90;4.40;;;;;;;;;;5043090;28;20053;-82
2022/05/25 06:33:09;;;;;;;12.43;4.53;;;;;;;;;;5036692;28;20045;-81
2022/05/25 06:35:56;;;;;;;11.20;5.13;;;;;;;;;;5043024;28;20041;-82
2022/05/25 06:38:41;;;;;;;10.18;4.68;;;;;;;;;;5035250;28;20045;-79
2022/05/25 06:41:26;;;;;;;10.07;5.00;;;;;;;;;;5035786;28;20050;-81
2022/05/25 06:44:12;;;;;;;9.70;4.95;;;;;;;;;;5036106;28;20037;-82
2022/05/25 06:46:58;;;;;;;8.82;4.75;;;;;;;;;;5042931;28;20053;-79
2022/05/25 06:49:43;;;;;;;11.10;5.35;;;;;;;;;;5036102;28;20050;-80
2022/05/25 06:52:29;;;;;;;11.60;5.85;;;;;;;;;;5036090;28;20050;-81
2022/05/25 06:55:14;;;;;;;14.40;5.20;;;;;;;;;;5036704;28;20049;-81
2022/05/25 06:58:00;;;;;;;7.35;4.30;;;;;;;;;;5042575;28;20049;-81
2022/05/25 07:00:45;;;;;;;7.82;4.45;;;;;;;;;;5036518;28;20050;-82
2022/05/25 07:03:31;;;;;;;23.60;4.80;;;;;;;;;;5021209;28;20407;-80
2022/05/25 07:06:18;;;;;;;10.73;4.22;;;;;;;;;;5042460;28;20049;-82
2022/05/25 07:09:05;;;;;;;8.90;3.92;;;;;;;;;;5036530;28;20050;-80
2022/05/25 07:11:51;;;;;;;13.68;4.60;;;;;;;;;;5042290;28;20046;-82
2022/05/25 07:14:39;;;;;;;6.30;3.70;;;;;;;;;;5042428;28;20046;-82
2022/05/25 07:17:24;;;;;;;8.25;4.47;;;;;;;;;;5036346;28;20057;-80
2022/05/25 07:20:10;;;;;;;11.93;5.15;;;;;;;;;;5042156;28;20424;-81
2022/05/25 07:22:55;;;;;;;10.35;4.47;;;;;;;;;;5043025;28;20393;-80
2022/05/25 07:25:41;;;;;;;9.10;4.70;;;;;;;;;;5035482;28;20041;-80
2022/05/25 07:28:27;;;;;;;19.88;4.72;;;;;;;;;;5035990;28;20045;-79
2022/05/25 07:31:19;;;;;;;17.08;4.80;;;;;;;;;;5034851;28;20042;-80
2022/05/25 07:34:11;;;;;;;9.73;4.55;;;;;;;;;;5041800;28;20057;-79
2022/05/25 07:37:00;;;;;;;10.18;3.97;;;;;;;;;;5035446;28;20476;-79
2022/05/25 07:39:58;;;;;;;10.20;4.25;;;;;;;;;;5034807;28;20049;-80
2022/05/25 07:42:48;;;;;;;9.63;4.07;;;;;;;;;;5042125;28;20057;-81
2022/05/25 07:45:34;;;;;;;9.02;3.70;;;;;;;;;;5035235;28;20049;-80
2022/05/25 07:48:19;;;;;;;7.10;3.78;;;;;;;;;;5035443;28;20045;-80
2022/05/25 07:51:05;;;;;;;7.20;3.83;;;;;;;;;;5041940;28;20053;-80
2022/05/25 07:53:56;;;;;;;9.35;4.55;;;;;;;;;;5041546;28;20061;-81
2022/05/25 07:56:42;;;;;;;7.97;4.28;;;;;;;;;;5041981;28;20046;-80
2022/05/25 07:59:28;;;;;;;15.00;4.70;;;;;;;;;;5035015;28;20392;-81
2022/05/25 08:06:04;;;;;;;30.42;5.13;;;;;;;;;;5033015;28;20053;-79
2022/05/25 08:08:44;;;;;;;14.18;4.82;;;;;;;;;;5041137;28;20045;-79
2022/05/25 08:11:30;;;;;;;12.63;4.45;;;;;;;;;;5041625;28;20392;-80
2022/05/25 08:14:16;;;;;;;10.30;4.03;;;;;;;;;;5041331;28;20053;-80
2022/05/25 08:17:02;;;;;;;11.23;4.20;;;;;;;;;;5033405;28;20041;-80
2022/05/25 08:19:48;;;;;;;10.35;4.30;;;;;;;;;;5040368;28;20045;-81
2022/05/25 08:22:34;;;;;;;10.23;3.90;;;;;;;;;;5034009;28;20049;-80
2022/05/25 08:25:19;;;;;;;13.30;3.92;;;;;;;;;;5035006;28;20049;-79
2022/05/25 08:28:05;;;;;;;12.05;4.50;;;;;;;;;;5041119;28;20042;-80
2022/05/25 08:30:50;;;;;;;8.02;3.63;;;;;;;;;;5041094;28;20045;-79
2022/05/25 08:33:36;;;;;;;7.85;4.10;;;;;;;;;;5041057;28;20053;-78
2022/05/25 08:36:21;;;;;;;9.75;3.45;;;;;;;;;;5040688;28;20045;-78
2022/05/25 08:39:06;;;;;;;10.68;3.85;;;;;;;;;;5040823;28;20049;-79
2022/05/25 08:41:55;;;;;;;7.95;3.58;;;;;;;;;;5034490;28;20489;-78
2022/05/25 08:44:42;;;;;;;7.90;3.90;;;;;;;;;;5040793;28;20049;-76
2022/05/25 08:47:28;;;;;;;7.47;3.47;;;;;;;;;;5041099;28;20045;-78
2022/05/25 08:50:13;;;;;;;6.97;3.88;;;;;;;;;;5040974;28;20049;-79
2022/05/25 08:53:01;;;;;;;12.18;4.65;;;;;;;;;;5041421;28;20046;-76
2022/05/25 08:56:26;;;;;;;9.00;3.60;;;;;;;;;;5040431;28;20053;-77
2022/05/25 08:59:30;;;;;;;11.43;3.67;;;;;;;;;;5040499;28;20045;-77
2022/05/25 09:02:18;;;;;;;10.93;3.97;;;;;;;;;;5033944;28;20045;-76
2022/05/25 09:05:25;;;;;;;6.63;3.50;;;;;;;;;;5040069;28;20045;-77
2022/05/25 09:08:51;;;;;;;11.75;4.20;;;;;;;;;;5034296;28;20049;-79
2022/05/25 09:11:45;;;;;;;10.70;4.10;;;;;;;;;;5039240;28;20049;-80
2022/05/25 09:14:32;;;;;;;13.27;3.90;;;;;;;;;;5040865;28;20400;-78
2022/05/25 09:17:25;;;;;;;10.50;4.00;;;;;;;;;;5033661;28;20049;-76
2022/05/25 09:20:15;;;;;;;14.68;4.03;;;;;;;;;;5040385;28;20045;-78
2022/05/25 09:23:00;;;;;;;11.98;3.78;;;;;;;;;;5040347;28;20054;-78
2022/05/25 09:25:46;;;;;;;12.00;4.45;;;;;;;;;;5039829;28;20049;-79
2022/05/25 09:28:35;;;;;;;9.20;4.10;;;;;;;;;;5040216;28;20045;-77
2022/05/25 09:31:25;;;;;;;15.07;4.30;;;;;;;;;;5040348;28;20400;-76
2022/05/25 09:34:29;;;;;;;14.98;4.00;;;;;;;;;;5033781;28;20050;-78
2022/05/25 09:37:30;;;;;;;10.18;3.80;;;;;;;;;;5040277;28;20057;-76
2022/05/25 09:40:21;;;;;;;12.65;4.00;;;;;;;;;;5037722;28;20053;-78
2022/05/25 09:43:09;;;;;;;9.25;3.92;;;;;;;;;;5040377;28;20046;-79
2022/05/25 09:45:58;;;;;;;11.00;4.00;;;;;;;;;;5038959;28;20045;-81
2022/05/25 09:48:50;;;;;;;15.57;3.75;;;;;;;;;;5018672;28;20050;-80
2022/05/25 09:51:45;;;;;;;11.07;3.63;;;;;;;;;;5033968;28;20049;-79
2022/05/25 09:54:40;;;;;;;9.70;4.03;;;;;;;;;;5035346;28;20049;-82
2022/05/25 09:57:52;;;;;;;9.80;3.47;;;;;;;;;;5043839;28;20041;-80
2022/05/25 10:00:42;;;;;;;8.30;3.53;;;;;;;;;;5043592;28;20049;-85
2022/05/25 10:03:41;;;;;;;10.07;3.60;;;;;;;;;;5043995;28;20400;-83
2022/05/25 10:06:49;;;;;;;10.80;3.60;;;;;;;;;;5037007;28;20045;-82
2022/05/25 10:09:44;;;;;;;10.07;3.50;;;;;;;;;;5036832;28;20038;-84
2022/05/25 10:13:00;;;;;;;8.80;3.67;;;;;;;;;;5043831;28;20049;-85
2022/05/25 10:15:51;;;;;;;18.85;3.90;;;;;;;;;;5037177;28;20065;-84
2022/05/25 10:18:40;;;;;;;12.85;4.10;;;;;;;;;;5044089;28;20394;-84
2022/05/25 10:21:29;;;;;;;11.57;3.88;;;;;;;;;;5036706;28;20476;-84
2022/05/25 10:24:21;;;;;;;12.20;4.13;;;;;;;;;;5036823;28;20041;-82
2022/05/25 10:27:22;;;;;;;12.18;3.35;;;;;;;;;;5043490;28;20053;-82
2022/05/25 10:36:56;;;;;;;11.07;3.33;;;;;;;;;;5036984;28;20045;-80
2022/05/25 10:39:58;;;;;;;12.70;3.25;;;;;;;;;;5036444;28;20045;-82
2022/05/25 10:42:47;;;;;;;13.90;3.55;;;;;;;;;;5036106;28;20061;-83
2022/05/25 10:45:39;;;;;;;12.27;3.83;;;;;;;;;;5043619;28;20042;-82
2022/05/25 10:48:42;;;;;;;12.82;4.05;;;;;;;;;;5036375;28;20053;-84
2022/05/25 10:51:33;;;;;;;10.40;3.72;;;;;;;;;;5036682;28;20048;-83
2022/05/25 10:54:45;;;;;;;8.57;3.67;;;;;;;;;;5027886;28;20412;-83
2022/05/25 10:57:54;;;;;;;9.45;3.60;;;;;;;;;;5036541;28;20400;-84
2022/05/25 11:00:57;;;;;;;14.73;3.78;;;;;;;;;;5036445;28;20464;-87
2022/05/25 11:03:42;;;;;;;12.68;3.80;;;;;;;;;;5035752;28;20041;-83
2022/05/25 11:06:27;;;;;;;16.55;4.13;;;;;;;;;;5034727;28;20041;-84
2022/05/25 11:09:19;;;;;;;8.88;3.78;;;;;;;;;;5036435;28;20404;-81
2022/05/25 11:12:22;;;;;;;8.60;3.55;;;;;;;;;;5035794;28;20041;-80
2022/05/25 11:15:26;;;;;;;10.18;3.33;;;;;;;;;;5035565;28;20046;-80
2022/05/25 11:18:36;;;;;;;11.23;3.60;;;;;;;;;;5035256;28;20049;-81
2022/05/25 11:21:58;;;;;;;14.68;3.58;;;;;;;;;;5042227;28;20045;-79
2022/05/25 11:24:53;;;;;;;14.50;3.88;;;;;;;;;;5035170;28;20488;-79
2022/05/25 11:27:54;;;;;;;14.15;3.40;;;;;;;;;;5035881;28;20476;-83
2022/05/25 11:31:04;;;;;;;16.65;3.45;;;;;;;;;;5035892;28;20042;-78
2022/05/25 11:34:05;;;;;;;11.90;3.65;;;;;;;;;;5043722;28;20049;-81
2022/05/25 11:36:59;;;;;;;14.05;3.25;;;;;;;;;;5042968;28;20041;-82
2022/05/25 11:40:05;;;;;;;10.05;3.10;;;;;;;;;;5035162;28;20049;-82
2022/05/25 11:43:11;;;;;;;15.32;3.70;;;;;;;;;;5035774;28;20156;-83
2022/05/25 11:45:57;;;;;;;11.43;3.60;;;;;;;;;;5034918;28;20045;-81
2022/05/25 11:48:48;;;;;;;8.13;3.47;;;;;;;;;;5035595;28;20045;-80
2022/05/25 11:51:52;;;;;;;12.13;3.50;;;;;;;;;;5035008;28;20053;-83
2022/05/25 11:54:56;;;;;;;11.00;3.90;;;;;;;;;;5035477;28;20049;-83
2022/05/25 11:57:49;;;;;;;;;;;;;;;;;;5042549;28;20613;-80
2022/05/25 12:00:40;;;;;;;12.63;3.83;;;;;;;;;;5034709;28;20348;-83
2022/05/25 12:03:49;;;;;;;12.38;4.20;;;;;;;;;;5034761;28;20054;-82
2022/05/25 12:06:55;;;;;;;8.65;3.85;;;;;;;;;;5041097;28;20477;-82
2022/05/25 12:09:43;;;;;;;14.05;3.60;;;;;;;;;;5031925;28;20046;-82
2022/05/25 12:12:37;;;;;;;12.68;4.30;;;;;;;;;;5039989;28;20481;-82
2022/05/25 12:15:31;;;;;;;8.43;3.75;;;;;;;;;;5038338;28;20045;-79
2022/05/25 12:18:55;;;;;;;9.52;4.03;;;;;;;;;;5022922;28;20037;-81
2022/05/25 12:21:46;;;;;;;11.48;3.78;;;;;;;;;;5024224;28;20050;-81
2022/05/25 12:24:42;;;;;;;18.35;4.15;;;;;;;;;;5034508;28;20037;-80
2022/05/25 12:27:35;;;;;;;13.57;4.38;;;;;;;;;;5021303;28;20046;-80
2022/05/25 12:30:32;;;;;;;10.40;3.88;;;;;;;;;;5021150;28;20049;-80
2022/05/25 12:33:25;;;;;;;12.48;4.30;;;;;;;;;;5040741;28;20057;-81
2022/05/25 12:36:12;;;;;;;11.57;4.00;;;;;;;;;;5039861;28;20053;-79
2022/05/25 12:38:58;;;;;;;10.55;3.60;;;;;;;;;;5034591;28;20396;-86
2022/05/25 12:41:43;;;;;;;14.07;4.07;;;;;;;;;;5034187;28;20050;-83
2022/05/25 12:51:32;;;;;;;14.32;4.43;;;;;;;;;;5033926;28;20046;-84
2022/05/25 12:54:21;;;;;;;12.73;4.00;;;;;;;;;;5025744;28;20057;-81
2022/05/25 12:57:23;;;;;;;16.25;3.85;;;;;;;;;;5033396;28;20050;-80
2022/05/25 13:00:27;;;;;;;15.13;3.97;;;;;;;;;;5031849;28;20045;-81
2022/05/25 13:03:32;;;;;;;9.43;3.65;;;;;;;;;;5023330;28;20049;-81
2022/05/25 13:06:21;;;;;;;9.15;3.42;;;;;;;;;;5029904;28;20396;-81
2022/05/25 13:09:10;;;;;;;9.90;3.53;;;;;;;;;;5029364;28;20046;-84
2022/05/25 13:11:56;;;;;;;11.98;3.95;;;;;;;;;;5029211;28;20049;-83
2022/05/25 13:14:41;;;;;;;19.77;4.10;;;;;;;;;;5026491;28;20485;-81
2022/05/25 13:18:00;;;;;;;9.00;2.83;;;;;;;;;;5018906;28;20046;-86
2022/05/25 13:20:48;;;;;;;13.13;3.63;;;;;;;;;;4973862;28;20049;-83
2022/05/25 13:23:52;;;;;;;10.75;3.95;;;;;;;;;;5033085;28;20392;-80
2022/05/25 13:26:51;;;;;;;9.00;3.43;;;;;;;;;;5030968;28;20108;-82
2022/05/25 13:29:51;;;;;;;10.88;4.00;;;;;;;;;;5039715;28;20053;-80
2022/05/25 13:32:54;;;;;;;11.20;4.45;;;;;;;;;;5013539;28;20053;-82
2022/05/25 13:35:44;;;;;;;6.05;3.58;;;;;;;;;;5034626;28;20041;-85
2022/05/25 13:38:47;;;;;;;12.77;4.47;;;;;;;;;;5033682;28;20473;-82
2022/05/25 13:41:55;;;;;;;15.15;4.13;;;;;;;;;;5013249;28;20054;-82
2022/05/25 13:44:42;;;;;;;9.35;3.70;;;;;;;;;;5013898;28;20050;-80
2022/05/25 13:47:27;;;;;;;10.50;3.33;;;;;;;;;;5022934;28;20041;-84
2022/05/25 13:50:13;;;;;;;14.45;3.67;;;;;;;;;;5033447;28;20046;-81
2022/05/25 13:52:59;;;;;;;9.35;3.60;;;;;;;;;;5025433;28;20477;-80
2022/05/25 13:55:45;;;;;;;10.35;3.30;;;;;;;;;;5036803;28;20061;-82
2022/05/25 13:58:31;;;;;;;8.27;3.33;;;;;;;;;;5021393;28;20045;-82
2022/05/25 14:01:22;;;;;;;13.68;3.80;;;;;;;;;;5023641;28;20054;-81
2022/05/25 14:04:26;;;;;;;17.70;4.00;;;;;;;;;;5022158;28;20473;-83
2022/05/25 14:07:32;;;;;;;17.50;4.25;;;;;;;;;;5000700;28;20038;-81
2022/05/25 14:13:31;;;;;;;41.83;5.97;;;;;;;;;;5036888;28;20049;-84
2022/05/25 14:16:28;;;;;;;18.27;4.80;;;;;;;;;;5037736;28;20049;-79
2022/05/25 14:19:21;;;;;;;19.35;4.45;;;;;;;;;;5035686;28;20046;-84
2022/05/25 14:22:08;;;;;;;16.77;4.47;;;;;;;;;;5040210;28;20053;-82
2022/05/25 14:24:55;;;;;;;12.80;4.22;;;;;;;;;;5033063;28;20045;-83
2022/05/25 14:27:41;;;;;;;17.27;4.15;;;;;;;;;;5033191;28;20049;-82
2022/05/25 14:30:31;;;;;;;14.90;4.20;;;;;;;;;;5029568;28;20053;-80
2022/05/25 14:33:20;;;;;;;10.27;4.45;;;;;;;;;;5019911;28;20046;-80
2022/05/25 14:36:08;;;;;;;12.63;4.28;;;;;;;;;;5012892;28;20053;-81
2022/05/25 14:38:53;;;;;;;10.35;3.80;;;;;;;;;;5013437;28;20049;-81
2022/05/25 14:41:49;;;;;;;13.50;4.18;;;;;;;;;;5016987;28;20053;-81
2022/05/25 14:44:49;;;;;;;14.38;4.38;;;;;;;;;;5021431;28;20045;-82
2022/05/25 14:47:42;;;;;;;13.00;4.72;;;;;;;;;;5023456;28;20046;-80
2022/05/25 14:50:27;;;;;;;11.52;3.97;;;;;;;;;;5016044;28;20038;-80
2022/05/25 14:53:18;;;;;;;17.58;4.68;;;;;;;;;;5016311;28;20042;-81
2022/05/25 14:56:08;;;;;;;17.25;5.78;;;;;;;;;;5022865;28;20054;-82
2022/05/25 14:58:55;;;;;;;22.63;5.95;;;;;;;;;;5016366;28;20393;-81
2022/05/25 15:01:41;;;;;;;23.13;6.20;;;;;;;;;;5016231;28;20050;-82
2022/05/25 15:04:36;;;;;;;18.05;5.03;;;;;;;;;;5022723;28;20050;-82
2022/05/25 15:07:26;;;;;;;11.77;4.15;;;;;;;;;;5016651;28;20050;-81
2022/05/25 15:10:12;;;;;;;14.10;4.43;;;;;;;;;;5022688;28;20401;-82
2022/05/25 15:12:58;;;;;;;23.33;4.30;;;;;;;;;;5022491;28;20046;-81
2022/05/25 15:18:49;;;;;;;13.45;4.07;;;;;;;;;;5015838;28;20049;-83
2022/05/25 15:21:34;;;;;;;15.18;4.13;;;;;;;;;;5015954;28;20049;-82
2022/05/25 15:24:23;;;;;;;12.40;3.70;;;;;;;;;;5015819;28;20042;-81
2022/05/25 15:27:23;;;;;;;14.27;4.55;;;;;;;;;;5015731;28;20050;-82
2022/05/25 15:30:29;;;;;;;13.30;4.03;;;;;;;;;;5016014;28;20152;-81
2022/05/25 15:33:17;;;;;;;15.27;4.50;;;;;;;;;;5015443;28;20049;-80
2022/05/25 15:36:12;;;;;;;13.68;4.55;;;;;;;;;;5015837;28;20050;-80
2022/05/25 15:38:57;;;;;;;19.38;3.90;;;;;;;;;;5022535;28;20050;-81
2022/05/25 15:41:46;;;;;;;12.95;4.10;;;;;;;;;;5015990;28;20046;-84
2022/05/25 15:44:57;;;;;;;11.20;3.63;;;;;;;;;;5015251;28;20049;-84
2022/05/25 15:56:28;;;;;;;17.48;5.32;;;;;;;;;;5021715;28;20045;-85
2022/05/25 15:59:17;;;;;;;11.05;4.70;;;;;;;;;;5000830;28;20046;-88
2022/05/25 16:02:02;;;;;;;12.73;4.55;;;;;;;;;;5015575;28;20041;-87
2022/05/25 16:05:01;;;;;;;15.35;4.53;;;;;;;;;;5007376;28;20050;-85
2022/05/25 16:10:53;;;;;;;12.13;4.55;;;;;;;;;;5024972;28;20051;-87
2022/05/25 16:13:41;;;;;;;13.35;4.13;;;;;;;;;;5017406;28;20062;-87
2022/05/25 16:16:54;;;;;;;12.23;3.95;;;;;;;;;;5012233;28;20042;-86
2022/05/25 16:19:48;;;;;;;10.40;3.90;;;;;;;;;;5012788;28;20051;-87
2022/05/25 16:22:39;;;;;;;12.40;4.03;;;;;;;;;;5014614;28;20034;-89
2022/05/25 16:46:52;;;;;;;12.02;4.60;;;;;;;;;;4992293;28;20398;-88
2022/05/25 16:50:57;;;;;;;;;;;;;;;;;;;;;
2022/05/25 16:54:16;;;;;;;13.52;4.00;;;;;;;;;;5003507;28;20037;-84
2022/05/25 16:57:05;;;;;;;12.88;4.20;;;;;;;;;;5012556;28;20049;-85
2022/05/25 16:59:56;;;;;;;12.77;4.57;;;;;;;;;;5013423;28;20046;-87
2022/05/25 17:02:41;;;;;;;16.25;4.03;;;;;;;;;;5014935;28;20038;-89
2022/05/25 17:05:27;;;;;;;17.45;4.68;;;;;;;;;;4972089;28;20042;-86
2022/05/25 17:08:12;;;;;;;13.52;4.80;;;;;;;;;;5014348;28;20489;-84
2022/05/25 17:11:00;;;;;;;15.55;4.20;;;;;;;;;;5020842;28;20049;-88
2022/05/25 17:13:46;;;;;;;16.27;4.72;;;;;;;;;;5014263;28;20045;-88
2022/05/25 17:16:31;;;;;;;18.05;4.75;;;;;;;;;;5008151;28;20485;-88
2022/05/25 17:26:14;;;;;;;16.33;4.35;;;;;;;;;;5014230;28;20062;-87
2022/05/25 17:28:59;;;;;;;12.30;5.03;;;;;;;;;;5019615;28;20057;-86
2022/05/25 17:31:45;;;;;;;13.07;4.95;;;;;;;;;;5013857;28;20045;-84
2022/05/25 17:34:59;;;;;;;13.38;5.03;;;;;;;;;;5013763;28;20042;-86
2022/05/25 17:43:00;;;;;;;18.63;5.88;;;;;;;;;;5016966;28;20034;-84
2022/05/25 17:50:41;;;;;;;16.60;5.40;;;;;;;;;;4897523;29;20045;-86
2022/05/25 17:53:37;;;;;;;13.82;5.25;;;;;;;;;;4931650;29;20055;-84
2022/05/25 17:56:38;;;;;;;17.65;5.22;;;;;;;;;;4935803;29;20059;-85
2022/05/25 17:59:35;;;;;;;15.65;4.85;;;;;;;;;;4962788;28;20047;-85
2022/05/25 18:02:23;;;;;;;18.65;5.13;;;;;;;;;;4981206;28;20047;-88
2022/05/25 18:05:09;;;;;;;14.27;5.18;;;;;;;;;;4977617;28;20039;-84
2022/05/25 18:07:54;;;;;;;18.20;5.65;;;;;;;;;;4969827;28;20038;-82
2022/05/25 18:10:40;;;;;;;16.15;4.88;;;;;;;;;;4994548;28;20042;-82
2022/05/25 18:13:26;;;;;;;13.38;4.63;;;;;;;;;;4993569;28;20050;-85
2022/05/25 18:16:12;;;;;;;19.45;5.38;;;;;;;;;;4990071;28;20138;-85
2022/05/25 18:18:57;;;;;;;10.23;4.65;;;;;;;;;;4989290;28;20054;-83
2022/05/25 18:21:44;;;;;;;15.05;5.18;;;;;;;;;;4984347;28;20054;-84
2022/05/25 18:24:32;;;;;;;18.58;4.72;;;;;;;;;;4985258;28;20053;-84